sensor_id;sensor_type;location;lat;lon;timestamp;temperature;humidity
30385;DHT22;17181;51.002;4.096;2023-09-30T01:42:12;14.30;99.90
30385;DHT22;17181;51.002;4.096;2023-09-30T01:45:05;14.30;99.90
30385;DHT22;17181;51.002;4.096;2023-09-30T01:47:33;14.20;99.90
30385;DHT22;17181;51.002;4.096;2023-09-30T06:14:46;13.20;99.90
30385;DHT22;17181;51.002;4.096;2023-09-30T07:05:14;13.50;99.90
30385;DHT22;17181;51.002;4.096;2023-09-30T07:07:44;13.80;99.90
30385;DHT22;17181;51.002;4.096;2023-09-30T07:10:15;13.80;99.90
30385;DHT22;17181;51.002;4.096;2023-09-30T08:41:04;15.90;99.90
30385;DHT22;17181;51.002;4.096;2023-09-30T08:43:30;16.00;99.90
30385;DHT22;17181;51.002;4.096;2023-09-30T08:46:04;16.00;99.90
30385;DHT22;17181;51.002;4.096;2023-09-30T08:48:32;16.00;99.90
30385;DHT22;17181;51.002;4.096;2023-09-30T08:50:59;16.10;99.90
30385;DHT22;17181;51.002;4.096;2023-09-30T08:53:50;16.20;99.90
30385;DHT22;17181;51.002;4.096;2023-09-30T08:56:20;16.10;99.90
30385;DHT22;17181;51.002;4.096;2023-09-30T08:59:09;16.30;99.90
30385;DHT22;17181;51.002;4.096;2023-09-30T09:01:36;16.40;99.90
30385;DHT22;17181;51.002;4.096;2023-09-30T09:04:25;16.40;99.90
30385;DHT22;17181;51.002;4.096;2023-09-30T09:06:53;16.50;99.90
30385;DHT22;17181;51.002;4.096;2023-09-30T09:09:21;16.60;99.90
30385;DHT22;17181;51.002;4.096;2023-09-30T09:12:18;16.60;99.90
30385;DHT22;17181;51.002;4.096;2023-09-30T09:17:41;16.80;99.90
30385;DHT22;17181;51.002;4.096;2023-09-30T09:20:11;16.90;99.90
30385;DHT22;17181;51.002;4.096;2023-09-30T09:25:28;17.00;99.90
30385;DHT22;17181;51.002;4.096;2023-09-30T09:30:59;17.10;99.90
30385;DHT22;17181;51.002;4.096;2023-09-30T09:33:35;17.20;99.90
30385;DHT22;17181;51.002;4.096;2023-09-30T09:36:02;17.30;99.90
30385;DHT22;17181;51.002;4.096;2023-09-30T09:38:43;17.40;99.90
30385;DHT22;17181;51.002;4.096;2023-09-30T09:41:10;17.50;99.90
30385;DHT22;17181;51.002;4.096;2023-09-30T09:43:41;17.60;99.90
30385;DHT22;17181;51.002;4.096;2023-09-30T09:46:08;17.70;99.90
30385;DHT22;17181;51.002;4.096;2023-09-30T09:48:36;17.80;99.90
30385;DHT22;17181;51.002;4.096;2023-09-30T09:51:04;17.80;99.90
30385;DHT22;17181;51.002;4.096;2023-09-30T09:53:36;17.90;99.90
30385;DHT22;17181;51.002;4.096;2023-09-30T09:56:03;18.00;99.90
30385;DHT22;17181;51.002;4.096;2023-09-30T09:58:33;18.00;99.90
30385;DHT22;17181;51.002;4.096;2023-09-30T10:01:05;18.10;99.90
30385;DHT22;17181;51.002;4.096;2023-09-30T10:03:34;18.20;99.90
30385;DHT22;17181;51.002;4.096;2023-09-30T10:06:02;18.20;99.90
30385;DHT22;17181;51.002;4.096;2023-09-30T10:08:45;18.40;99.90
30385;DHT22;17181;51.002;4.096;2023-09-30T10:11:19;18.30;99.90
30385;DHT22;17181;51.002;4.096;2023-09-30T10:14:00;18.40;99.90
30385;DHT22;17181;51.002;4.096;2023-09-30T10:19:17;18.60;99.90
30385;DHT22;17181;51.002;4.096;2023-09-30T10:33:14;18.90;99.90
30385;DHT22;17181;51.002;4.096;2023-09-30T10:53:28;19.30;99.90
30385;DHT22;17181;51.002;4.096;2023-09-30T12:06:34;20.60;99.90
30385;DHT22;17181;51.002;4.096;2023-09-30T12:09:04;20.60;99.90
30385;DHT22;17181;51.002;4.096;2023-09-30T12:11:29;20.60;99.90
30385;DHT22;17181;51.002;4.096;2023-09-30T12:13:55;20.60;99.90
30385;DHT22;17181;51.002;4.096;2023-09-30T12:16:21;20.70;99.90
30385;DHT22;17181;51.002;4.096;2023-09-30T12:18:47;20.70;99.90
30385;DHT22;17181;51.002;4.096;2023-09-30T12:21:13;20.70;99.90
30385;DHT22;17181;51.002;4.096;2023-09-30T12:23:45;20.70;99.90
30385;DHT22;17181;51.002;4.096;2023-09-30T12:26:11;20.80;99.90
30385;DHT22;17181;51.002;4.096;2023-09-30T12:28:37;20.90;99.90
30385;DHT22;17181;51.002;4.096;2023-09-30T12:31:06;21.10;99.90
30385;DHT22;17181;51.002;4.096;2023-09-30T12:33:32;21.20;99.90
30385;DHT22;17181;51.002;4.096;2023-09-30T12:35:58;21.30;99.90
30385;DHT22;17181;51.002;4.096;2023-09-30T12:38:25;21.40;99.90
30385;DHT22;17181;51.002;4.096;2023-09-30T12:40:55;21.50;99.90
30385;DHT22;17181;51.002;4.096;2023-09-30T12:43:21;21.60;99.90
30385;DHT22;17181;51.002;4.096;2023-09-30T12:45:47;21.70;99.90
30385;DHT22;17181;51.002;4.096;2023-09-30T12:48:16;21.70;99.90
30385;DHT22;17181;51.002;4.096;2023-09-30T12:50:46;21.70;99.30
30385;DHT22;17181;51.002;4.096;2023-09-30T12:53:12;21.60;98.80
30385;DHT22;17181;51.002;4.096;2023-09-30T12:55:37;21.50;98.60
30385;DHT22;17181;51.002;4.096;2023-09-30T12:58:03;21.50;98.70
30385;DHT22;17181;51.002;4.096;2023-09-30T13:00:31;21.50;98.20
30385;DHT22;17181;51.002;4.096;2023-09-30T13:02:59;21.50;98.60
30385;DHT22;17181;51.002;4.096;2023-09-30T13:05:25;21.70;98.90
30385;DHT22;17181;51.002;4.096;2023-09-30T13:07:51;21.80;98.90
30385;DHT22;17181;51.002;4.096;2023-09-30T13:10:18;21.90;97.80
30385;DHT22;17181;51.002;4.096;2023-09-30T13:12:48;22.00;97.10
30385;DHT22;17181;51.002;4.096;2023-09-30T13:15:16;22.10;97.00
30385;DHT22;17181;51.002;4.096;2023-09-30T13:17:44;22.10;96.80
30385;DHT22;17181;51.002;4.096;2023-09-30T13:20:11;22.20;95.70
30385;DHT22;17181;51.002;4.096;2023-09-30T13:22:40;22.00;95.30
30385;DHT22;17181;51.002;4.096;2023-09-30T13:25:07;21.90;95.70
30385;DHT22;17181;51.002;4.096;2023-09-30T13:39:19;21.80;95.50
30385;DHT22;17181;51.002;4.096;2023-09-30T13:48:51;22.00;95.30
30385;DHT22;17181;51.002;4.096;2023-09-30T13:51:18;22.20;95.50
30385;DHT22;17181;51.002;4.096;2023-09-30T14:15:31;27.60;93.30
